sensor_id;sensor_type;location;lat;lon;timestamp;P1;durP1;ratioP1;P2;durP2;ratioP2
45762;SDS011;37512;52.408;13.356;2023-03-20T00:00:53;7.28;;;3.47;;
45762;SDS011;37512;52.408;13.356;2023-03-20T00:04:55;7.35;;;4.38;;
45762;SDS011;37512;52.408;13.356;2023-03-20T00:08:57;8.75;;;4.07;;
45762;SDS011;37512;52.408;13.356;2023-03-20T00:12:58;5.70;;;3.75;;
45762;SDS011;37512;52.408;13.356;2023-03-20T00:17:00;6.90;;;4.25;;
45762;SDS011;37512;52.408;13.356;2023-03-20T00:21:02;6.97;;;3.90;;
45762;SDS011;37512;52.408;13.356;2023-03-20T00:25:03;5.43;;;3.90;;
45762;SDS011;37512;52.408;13.356;2023-03-20T00:29:06;7.00;;;3.67;;
45762;SDS011;37512;52.408;13.356;2023-03-20T00:33:14;6.35;;;4.13;;
45762;SDS011;37512;52.408;13.356;2023-03-20T00:37:17;7.53;;;3.92;;
45762;SDS011;37512;52.408;13.356;2023-03-20T00:41:28;7.25;;;4.55;;
45762;SDS011;37512;52.408;13.356;2023-03-20T00:45:33;5.82;;;3.78;;
45762;SDS011;37512;52.408;13.356;2023-03-20T00:49:36;5.68;;;3.80;;
45762;SDS011;37512;52.408;13.356;2023-03-20T00:53:38;8.60;;;4.50;;
45762;SDS011;37512;52.408;13.356;2023-03-20T00:57:59;8.90;;;4.53;;
45762;SDS011;37512;52.408;13.356;2023-03-20T01:02:02;8.30;;;4.30;;
45762;SDS011;37512;52.408;13.356;2023-03-20T01:06:04;7.50;;;3.70;;
45762;SDS011;37512;52.408;13.356;2023-03-20T01:10:06;6.90;;;3.92;;
45762;SDS011;37512;52.408;13.356;2023-03-20T01:14:12;4.95;;;3.90;;
45762;SDS011;37512;52.408;13.356;2023-03-20T01:18:16;5.75;;;4.30;;
45762;SDS011;37512;52.408;13.356;2023-03-20T01:22:18;5.78;;;4.25;;
45762;SDS011;37512;52.408;13.356;2023-03-20T01:26:21;5.70;;;4.32;;
45762;SDS011;37512;52.408;13.356;2023-03-20T01:30:28;6.60;;;4.10;;
45762;SDS011;37512;52.408;13.356;2023-03-20T01:34:31;8.35;;;4.60;;
45762;SDS011;37512;52.408;13.356;2023-03-20T01:38:32;8.85;;;5.50;;
45762;SDS011;37512;52.408;13.356;2023-03-20T01:42:34;8.55;;;5.50;;
45762;SDS011;37512;52.408;13.356;2023-03-20T01:46:36;8.38;;;4.97;;
45762;SDS011;37512;52.408;13.356;2023-03-20T01:50:40;7.32;;;5.85;;
45762;SDS011;37512;52.408;13.356;2023-03-20T01:54:41;8.70;;;5.72;;
45762;SDS011;37512;52.408;13.356;2023-03-20T01:58:43;8.10;;;5.40;;
45762;SDS011;37512;52.408;13.356;2023-03-20T02:02:48;6.35;;;5.43;;
45762;SDS011;37512;52.408;13.356;2023-03-20T02:06:50;6.63;;;5.05;;
45762;SDS011;37512;52.408;13.356;2023-03-20T02:10:52;8.77;;;5.53;;
45762;SDS011;37512;52.408;13.356;2023-03-20T02:14:54;9.85;;;5.90;;
45762;SDS011;37512;52.408;13.356;2023-03-20T02:18:56;8.48;;;6.25;;
45762;SDS011;37512;52.408;13.356;2023-03-20T02:32:09;8.75;;;5.63;;
45762;SDS011;37512;52.408;13.356;2023-03-20T02:53:39;12.30;;;5.88;;
45762;SDS011;37512;52.408;13.356;2023-03-20T02:58:09;9.85;;;6.22;;
45762;SDS011;37512;52.408;13.356;2023-03-20T03:02:27;9.68;;;6.03;;
45762;SDS011;37512;52.408;13.356;2023-03-20T03:06:36;6.85;;;5.32;;
45762;SDS011;37512;52.408;13.356;2023-03-20T03:10:44;11.10;;;5.90;;
45762;SDS011;37512;52.408;13.356;2023-03-20T03:14:57;12.40;;;5.93;;
45762;SDS011;37512;52.408;13.356;2023-03-20T03:19:05;9.10;;;5.90;;
45762;SDS011;37512;52.408;13.356;2023-03-20T03:23:14;10.82;;;6.18;;
45762;SDS011;37512;52.408;13.356;2023-03-20T03:27:31;9.30;;;5.93;;
45762;SDS011;37512;52.408;13.356;2023-03-20T03:31:40;7.72;;;5.88;;
45762;SDS011;37512;52.408;13.356;2023-03-20T03:35:44;8.23;;;6.05;;
45762;SDS011;37512;52.408;13.356;2023-03-20T03:39:51;8.18;;;5.53;;
45762;SDS011;37512;52.408;13.356;2023-03-20T03:48:31;7.82;;;5.55;;
45762;SDS011;37512;52.408;13.356;2023-03-20T03:52:36;9.45;;;5.35;;
45762;SDS011;37512;52.408;13.356;2023-03-20T03:56:40;7.25;;;5.85;;
45762;SDS011;37512;52.408;13.356;2023-03-20T04:00:44;8.90;;;5.68;;
45762;SDS011;37512;52.408;13.356;2023-03-20T04:04:51;9.52;;;5.78;;
45762;SDS011;37512;52.408;13.356;2023-03-20T04:08:55;7.05;;;5.78;;
45762;SDS011;37512;52.408;13.356;2023-03-20T04:12:56;8.80;;;6.13;;
45762;SDS011;37512;52.408;13.356;2023-03-20T04:16:57;7.68;;;5.47;;
45762;SDS011;37512;52.408;13.356;2023-03-20T04:20:59;7.13;;;5.78;;
45762;SDS011;37512;52.408;13.356;2023-03-20T04:25:01;8.65;;;6.13;;
45762;SDS011;37512;52.408;13.356;2023-03-20T04:29:04;7.18;;;5.78;;
45762;SDS011;37512;52.408;13.356;2023-03-20T04:33:06;7.93;;;5.60;;
45762;SDS011;37512;52.408;13.356;2023-03-20T04:37:07;9.70;;;6.65;;
45762;SDS011;37512;52.408;13.356;2023-03-20T04:41:09;9.38;;;6.18;;
45762;SDS011;37512;52.408;13.356;2023-03-20T04:45:11;8.93;;;6.53;;
45762;SDS011;37512;52.408;13.356;2023-03-20T04:49:12;9.27;;;6.15;;
45762;SDS011;37512;52.408;13.356;2023-03-20T04:53:14;9.35;;;6.82;;
45762;SDS011;37512;52.408;13.356;2023-03-20T04:57:16;9.05;;;5.97;;
45762;SDS011;37512;52.408;13.356;2023-03-20T05:01:17;10.23;;;6.82;;
45762;SDS011;37512;52.408;13.356;2023-03-20T05:05:19;9.25;;;6.30;;
45762;SDS011;37512;52.408;13.356;2023-03-20T05:09:20;14.50;;;6.40;;
45762;SDS011;37512;52.408;13.356;2023-03-20T05:13:22;12.32;;;8.05;;
45762;SDS011;37512;52.408;13.356;2023-03-20T05:17:24;11.65;;;7.10;;
45762;SDS011;37512;52.408;13.356;2023-03-20T05:21:25;9.50;;;6.95;;
45762;SDS011;37512;52.408;13.356;2023-03-20T05:25:27;10.30;;;8.18;;
45762;SDS011;37512;52.408;13.356;2023-03-20T05:29:28;12.15;;;7.13;;
45762;SDS011;37512;52.408;13.356;2023-03-20T05:33:30;10.05;;;7.00;;
45762;SDS011;37512;52.408;13.356;2023-03-20T05:37:31;10.35;;;7.45;;
45762;SDS011;37512;52.408;13.356;2023-03-20T05:41:33;10.70;;;7.20;;
45762;SDS011;37512;52.408;13.356;2023-03-20T05:45:34;11.45;;;7.47;;
45762;SDS011;37512;52.408;13.356;2023-03-20T05:49:36;13.23;;;8.57;;
45762;SDS011;37512;52.408;13.356;2023-03-20T05:53:38;13.60;;;9.32;;
45762;SDS011;37512;52.408;13.356;2023-03-20T05:57:39;13.70;;;9.40;;
45762;SDS011;37512;52.408;13.356;2023-03-20T06:01:41;15.07;;;10.52;;
45762;SDS011;37512;52.408;13.356;2023-03-20T06:05:43;14.02;;;8.98;;
45762;SDS011;37512;52.408;13.356;2023-03-20T06:09:44;15.25;;;10.23;;
45762;SDS011;37512;52.408;13.356;2023-03-20T06:13:46;15.77;;;10.00;;
45762;SDS011;37512;52.408;13.356;2023-03-20T06:17:47;17.38;;;10.98;;
45762;SDS011;37512;52.408;13.356;2023-03-20T06:21:49;17.60;;;10.48;;
45762;SDS011;37512;52.408;13.356;2023-03-20T06:25:51;20.73;;;11.10;;
45762;SDS011;37512;52.408;13.356;2023-03-20T06:29:52;21.35;;;11.75;;
45762;SDS011;37512;52.408;13.356;2023-03-20T06:33:54;22.70;;;12.50;;
45762;SDS011;37512;52.408;13.356;2023-03-20T06:37:56;19.33;;;11.38;;
45762;SDS011;37512;52.408;13.356;2023-03-20T06:41:58;17.95;;;12.15;;
45762;SDS011;37512;52.408;13.356;2023-03-20T06:45:59;21.85;;;13.00;;
45762;SDS011;37512;52.408;13.356;2023-03-20T06:50:01;20.85;;;13.30;;
45762;SDS011;37512;52.408;13.356;2023-03-20T06:54:02;21.35;;;15.00;;
45762;SDS011;37512;52.408;13.356;2023-03-20T06:58:04;24.67;;;15.73;;
45762;SDS011;37512;52.408;13.356;2023-03-20T07:02:06;30.08;;;17.25;;
45762;SDS011;37512;52.408;13.356;2023-03-20T07:06:08;26.92;;;15.95;;
45762;SDS011;37512;52.408;13.356;2023-03-20T07:10:12;26.95;;;17.23;;
45762;SDS011;37512;52.408;13.356;2023-03-20T07:14:13;36.38;;;19.00;;
45762;SDS011;37512;52.408;13.356;2023-03-20T07:18:17;30.50;;;16.27;;
45762;SDS011;37512;52.408;13.356;2023-03-20T07:22:20;34.97;;;18.90;;
45762;SDS011;37512;52.408;13.356;2023-03-20T07:26:26;39.55;;;20.50;;
45762;SDS011;37512;52.408;13.356;2023-03-20T07:30:27;35.88;;;18.83;;
45762;SDS011;37512;52.408;13.356;2023-03-20T07:34:29;41.17;;;21.48;;
45762;SDS011;37512;52.408;13.356;2023-03-20T07:38:30;21.75;;;12.57;;
45762;SDS011;37512;52.408;13.356;2023-03-20T07:42:32;31.95;;;16.88;;
45762;SDS011;37512;52.408;13.356;2023-03-20T07:46:33;36.92;;;20.50;;
45762;SDS011;37512;52.408;13.356;2023-03-20T07:50:35;34.42;;;19.08;;
45762;SDS011;37512;52.408;13.356;2023-03-20T07:54:36;34.85;;;17.88;;
45762;SDS011;37512;52.408;13.356;2023-03-20T07:58:38;37.83;;;18.73;;
45762;SDS011;37512;52.408;13.356;2023-03-20T08:02:39;35.35;;;16.88;;
45762;SDS011;37512;52.408;13.356;2023-03-20T08:06:41;27.23;;;14.05;;
45762;SDS011;37512;52.408;13.356;2023-03-20T08:10:43;28.85;;;16.08;;
45762;SDS011;37512;52.408;13.356;2023-03-20T08:14:45;34.60;;;17.52;;
45762;SDS011;37512;52.408;13.356;2023-03-20T08:18:46;26.90;;;11.70;;
45762;SDS011;37512;52.408;13.356;2023-03-20T08:22:48;18.25;;;9.15;;
45762;SDS011;37512;52.408;13.356;2023-03-20T08:26:50;36.58;;;16.58;;
45762;SDS011;37512;52.408;13.356;2023-03-20T08:30:52;31.33;;;15.38;;
45762;SDS011;37512;52.408;13.356;2023-03-20T08:34:54;32.25;;;14.43;;
45762;SDS011;37512;52.408;13.356;2023-03-20T08:38:55;30.23;;;15.02;;
45762;SDS011;37512;52.408;13.356;2023-03-20T08:42:57;30.27;;;14.82;;
45762;SDS011;37512;52.408;13.356;2023-03-20T08:46:59;31.45;;;14.93;;
45762;SDS011;37512;52.408;13.356;2023-03-20T08:51:01;28.45;;;15.57;;
45762;SDS011;37512;52.408;13.356;2023-03-20T08:55:03;28.88;;;14.30;;
45762;SDS011;37512;52.408;13.356;2023-03-20T08:59:08;10.85;;;6.05;;
45762;SDS011;37512;52.408;13.356;2023-03-20T09:03:10;25.67;;;11.98;;
45762;SDS011;37512;52.408;13.356;2023-03-20T09:07:15;27.85;;;13.20;;
45762;SDS011;37512;52.408;13.356;2023-03-20T09:11:16;14.85;;;8.05;;
45762;SDS011;37512;52.408;13.356;2023-03-20T09:15:18;23.63;;;11.70;;
45762;SDS011;37512;52.408;13.356;2023-03-20T09:19:20;20.73;;;11.25;;
45762;SDS011;37512;52.408;13.356;2023-03-20T09:23:21;13.65;;;6.93;;
45762;SDS011;37512;52.408;13.356;2023-03-20T09:27:23;24.13;;;10.63;;
45762;SDS011;37512;52.408;13.356;2023-03-20T09:31:24;18.50;;;8.63;;
45762;SDS011;37512;52.408;13.356;2023-03-20T09:35:26;18.95;;;10.40;;
45762;SDS011;37512;52.408;13.356;2023-03-20T09:39:27;16.10;;;8.63;;
45762;SDS011;37512;52.408;13.356;2023-03-20T09:43:52;17.95;;;9.38;;
45762;SDS011;37512;52.408;13.356;2023-03-20T09:48:17;15.93;;;8.65;;
45762;SDS011;37512;52.408;13.356;2023-03-20T09:52:34;19.77;;;10.32;;
45762;SDS011;37512;52.408;13.356;2023-03-20T09:56:41;16.70;;;7.70;;
45762;SDS011;37512;52.408;13.356;2023-03-20T10:00:43;20.27;;;8.95;;
45762;SDS011;37512;52.408;13.356;2023-03-20T10:04:46;12.35;;;7.07;;
45762;SDS011;37512;52.408;13.356;2023-03-20T10:08:49;13.70;;;6.80;;
45762;SDS011;37512;52.408;13.356;2023-03-20T10:12:55;12.95;;;7.40;;
45762;SDS011;37512;52.408;13.356;2023-03-20T10:17:20;12.88;;;6.72;;
45762;SDS011;37512;52.408;13.356;2023-03-20T10:21:42;8.13;;;4.43;;
45762;SDS011;37512;52.408;13.356;2023-03-20T10:25:48;11.00;;;6.05;;
45762;SDS011;37512;52.408;13.356;2023-03-20T10:34:19;14.20;;;7.10;;
45762;SDS011;37512;52.408;13.356;2023-03-20T10:42:58;11.68;;;6.13;;
45762;SDS011;37512;52.408;13.356;2023-03-20T10:47:04;10.52;;;5.80;;
45762;SDS011;37512;52.408;13.356;2023-03-20T10:51:11;12.93;;;4.68;;
45762;SDS011;37512;52.408;13.356;2023-03-20T10:55:19;11.10;;;5.95;;
45762;SDS011;37512;52.408;13.356;2023-03-20T11:03:35;9.85;;;5.25;;
45762;SDS011;37512;52.408;13.356;2023-03-20T11:07:39;10.02;;;5.90;;
45762;SDS011;37512;52.408;13.356;2023-03-20T11:11:41;9.45;;;5.13;;
45762;SDS011;37512;52.408;13.356;2023-03-20T11:15:46;13.70;;;6.47;;
45762;SDS011;37512;52.408;13.356;2023-03-20T11:19:48;11.25;;;5.97;;
45762;SDS011;37512;52.408;13.356;2023-03-20T11:23:51;10.27;;;5.85;;
45762;SDS011;37512;52.408;13.356;2023-03-20T11:27:54;10.82;;;4.53;;
45762;SDS011;37512;52.408;13.356;2023-03-20T11:32:02;7.97;;;4.00;;
45762;SDS011;37512;52.408;13.356;2023-03-20T11:40:31;11.32;;;5.72;;
45762;SDS011;37512;52.408;13.356;2023-03-20T11:44:34;11.98;;;5.63;;
45762;SDS011;37512;52.408;13.356;2023-03-20T11:48:37;8.88;;;3.42;;
45762;SDS011;37512;52.408;13.356;2023-03-20T11:52:41;14.85;;;6.78;;
45762;SDS011;37512;52.408;13.356;2023-03-20T11:56:52;9.70;;;5.53;;
45762;SDS011;37512;52.408;13.356;2023-03-20T12:00:59;13.95;;;7.07;;
45762;SDS011;37512;52.408;13.356;2023-03-20T12:05:16;13.82;;;6.63;;
45762;SDS011;37512;52.408;13.356;2023-03-20T12:14:05;12.25;;;5.88;;
45762;SDS011;37512;52.408;13.356;2023-03-20T12:22:37;12.60;;;5.50;;
45762;SDS011;37512;52.408;13.356;2023-03-20T12:31:35;10.10;;;5.82;;
45762;SDS011;37512;52.408;13.356;2023-03-20T12:35:43;6.45;;;3.80;;
45762;SDS011;37512;52.408;13.356;2023-03-20T12:39:56;12.88;;;5.43;;
45762;SDS011;37512;52.408;13.356;2023-03-20T12:57:31;11.95;;;5.93;;
45762;SDS011;37512;52.408;13.356;2023-03-20T13:23:47;12.13;;;6.35;;
45762;SDS011;37512;52.408;13.356;2023-03-20T13:28:08;13.45;;;7.00;;
45762;SDS011;37512;52.408;13.356;2023-03-20T13:32:29;13.48;;;7.50;;
45762;SDS011;37512;52.408;13.356;2023-03-20T13:40:59;17.23;;;8.63;;
45762;SDS011;37512;52.408;13.356;2023-03-20T13:45:11;15.23;;;8.27;;
45762;SDS011;37512;52.408;13.356;2023-03-20T14:02:32;14.60;;;8.15;;
45762;SDS011;37512;52.408;13.356;2023-03-20T14:06:43;5.38;;;4.55;;
45762;SDS011;37512;52.408;13.356;2023-03-20T14:10:45;13.48;;;8.20;;
45762;SDS011;37512;52.408;13.356;2023-03-20T14:14:48;16.65;;;9.13;;
45762;SDS011;37512;52.408;13.356;2023-03-20T14:23:28;15.10;;;8.50;;
45762;SDS011;37512;52.408;13.356;2023-03-20T14:27:35;15.75;;;9.15;;
45762;SDS011;37512;52.408;13.356;2023-03-20T14:31:52;17.73;;;8.80;;
45762;SDS011;37512;52.408;13.356;2023-03-20T14:36:11;20.52;;;10.70;;
45762;SDS011;37512;52.408;13.356;2023-03-20T14:40:19;17.35;;;10.35;;
45762;SDS011;37512;52.408;13.356;2023-03-20T14:48:57;15.65;;;8.27;;
45762;SDS011;37512;52.408;13.356;2023-03-20T14:53:11;18.98;;;10.77;;
45762;SDS011;37512;52.408;13.356;2023-03-20T14:57:17;17.63;;;10.23;;
45762;SDS011;37512;52.408;13.356;2023-03-20T15:05:56;20.83;;;9.93;;
45762;SDS011;37512;52.408;13.356;2023-03-20T15:10:02;22.98;;;10.52;;
45762;SDS011;37512;52.408;13.356;2023-03-20T15:14:05;20.58;;;10.77;;
45762;SDS011;37512;52.408;13.356;2023-03-20T15:18:12;16.27;;;9.85;;
45762;SDS011;37512;52.408;13.356;2023-03-20T15:22:15;19.20;;;10.75;;
45762;SDS011;37512;52.408;13.356;2023-03-20T15:26:18;22.40;;;10.85;;
45762;SDS011;37512;52.408;13.356;2023-03-20T15:30:22;17.38;;;10.32;;
45762;SDS011;37512;52.408;13.356;2023-03-20T15:34:25;19.60;;;10.40;;
45762;SDS011;37512;52.408;13.356;2023-03-20T15:38:29;11.52;;;7.15;;
45762;SDS011;37512;52.408;13.356;2023-03-20T15:42:34;14.80;;;8.98;;
45762;SDS011;37512;52.408;13.356;2023-03-20T15:46:35;15.65;;;9.60;;
45762;SDS011;37512;52.408;13.356;2023-03-20T15:50:37;18.67;;;10.23;;
45762;SDS011;37512;52.408;13.356;2023-03-20T15:54:43;19.92;;;9.57;;
45762;SDS011;37512;52.408;13.356;2023-03-20T15:58:47;17.38;;;10.57;;
45762;SDS011;37512;52.408;13.356;2023-03-20T16:02:52;20.83;;;10.48;;
45762;SDS011;37512;52.408;13.356;2023-03-20T16:06:57;15.13;;;9.55;;
45762;SDS011;37512;52.408;13.356;2023-03-20T16:11:05;15.18;;;8.43;;
45762;SDS011;37512;52.408;13.356;2023-03-20T16:15:08;10.43;;;5.90;;
45762;SDS011;37512;52.408;13.356;2023-03-20T16:19:11;7.22;;;4.50;;
45762;SDS011;37512;52.408;13.356;2023-03-20T16:23:18;17.60;;;9.98;;
45762;SDS011;37512;52.408;13.356;2023-03-20T16:27:28;19.05;;;9.65;;
45762;SDS011;37512;52.408;13.356;2023-03-20T16:31:34;19.30;;;9.40;;
45762;SDS011;37512;52.408;13.356;2023-03-20T16:35:48;16.92;;;10.57;;
45762;SDS011;37512;52.408;13.356;2023-03-20T16:40:52;19.40;;;9.63;;
45762;SDS011;37512;52.408;13.356;2023-03-20T16:44:31;14.32;;;9.52;;
45762;SDS011;37512;52.408;13.356;2023-03-20T16:48:37;14.48;;;8.45;;
45762;SDS011;37512;52.408;13.356;2023-03-20T16:52:40;16.50;;;9.75;;
45762;SDS011;37512;52.408;13.356;2023-03-20T16:56:50;15.65;;;9.98;;
45762;SDS011;37512;52.408;13.356;2023-03-20T17:00:57;17.30;;;9.95;;
45762;SDS011;37512;52.408;13.356;2023-03-20T17:05:03;14.95;;;9.50;;
45762;SDS011;37512;52.408;13.356;2023-03-20T17:13:33;15.02;;;9.80;;
45762;SDS011;37512;52.408;13.356;2023-03-20T17:17:35;16.33;;;10.15;;
45762;SDS011;37512;52.408;13.356;2023-03-20T17:21:36;22.20;;;10.77;;
45762;SDS011;37512;52.408;13.356;2023-03-20T17:25:38;19.48;;;10.90;;
45762;SDS011;37512;52.408;13.356;2023-03-20T17:29:39;20.70;;;10.68;;
45762;SDS011;37512;52.408;13.356;2023-03-20T17:33:41;19.25;;;10.45;;
45762;SDS011;37512;52.408;13.356;2023-03-20T17:37:43;16.10;;;9.75;;
45762;SDS011;37512;52.408;13.356;2023-03-20T17:41:45;18.60;;;10.45;;
45762;SDS011;37512;52.408;13.356;2023-03-20T17:45:47;17.77;;;10.80;;
45762;SDS011;37512;52.408;13.356;2023-03-20T17:49:49;19.98;;;11.13;;
45762;SDS011;37512;52.408;13.356;2023-03-20T17:53:54;20.13;;;11.20;;
45762;SDS011;37512;52.408;13.356;2023-03-20T17:57:58;20.80;;;11.23;;
45762;SDS011;37512;52.408;13.356;2023-03-20T18:01:59;18.77;;;10.55;;
45762;SDS011;37512;52.408;13.356;2023-03-20T18:06:01;19.45;;;11.00;;
45762;SDS011;37512;52.408;13.356;2023-03-20T18:10:20;19.27;;;11.00;;
45762;SDS011;37512;52.408;13.356;2023-03-20T18:14:26;46.33;;;25.98;;
45762;SDS011;37512;52.408;13.356;2023-03-20T18:18:27;21.40;;;12.07;;
45762;SDS011;37512;52.408;13.356;2023-03-20T18:22:29;20.45;;;11.32;;
45762;SDS011;37512;52.408;13.356;2023-03-20T18:26:30;22.25;;;12.25;;
45762;SDS011;37512;52.408;13.356;2023-03-20T18:30:33;19.05;;;11.80;;
45762;SDS011;37512;52.408;13.356;2023-03-20T18:34:36;20.02;;;10.95;;
45762;SDS011;37512;52.408;13.356;2023-03-20T18:38:38;19.52;;;11.50;;
45762;SDS011;37512;52.408;13.356;2023-03-20T18:42:40;21.80;;;11.73;;
45762;SDS011;37512;52.408;13.356;2023-03-20T18:46:41;20.27;;;12.20;;
45762;SDS011;37512;52.408;13.356;2023-03-20T18:50:43;20.05;;;11.98;;
45762;SDS011;37512;52.408;13.356;2023-03-20T18:54:45;20.23;;;11.38;;
45762;SDS011;37512;52.408;13.356;2023-03-20T18:58:46;24.30;;;12.52;;
45762;SDS011;37512;52.408;13.356;2023-03-20T19:02:49;20.17;;;11.43;;
45762;SDS011;37512;52.408;13.356;2023-03-20T19:06:52;22.73;;;12.65;;
45762;SDS011;37512;52.408;13.356;2023-03-20T19:10:53;22.13;;;13.02;;
45762;SDS011;37512;52.408;13.356;2023-03-20T19:14:55;19.95;;;12.27;;
45762;SDS011;37512;52.408;13.356;2023-03-20T19:19:00;21.02;;;13.10;;
45762;SDS011;37512;52.408;13.356;2023-03-20T19:23:07;21.15;;;13.65;;
45762;SDS011;37512;52.408;13.356;2023-03-20T19:27:12;24.92;;;13.68;;
45762;SDS011;37512;52.408;13.356;2023-03-20T19:31:17;30.27;;;15.85;;
45762;SDS011;37512;52.408;13.356;2023-03-20T19:35:20;23.58;;;14.73;;
45762;SDS011;37512;52.408;13.356;2023-03-20T19:39:42;23.83;;;14.80;;
45762;SDS011;37512;52.408;13.356;2023-03-20T19:43:43;29.98;;;18.13;;
45762;SDS011;37512;52.408;13.356;2023-03-20T19:47:53;32.00;;;21.75;;
45762;SDS011;37512;52.408;13.356;2023-03-20T19:51:55;18.02;;;10.35;;
45762;SDS011;37512;52.408;13.356;2023-03-20T19:55:56;20.90;;;14.38;;
45762;SDS011;37512;52.408;13.356;2023-03-20T19:59:58;19.33;;;12.30;;
45762;SDS011;37512;52.408;13.356;2023-03-20T20:04:19;7.10;;;4.57;;
45762;SDS011;37512;52.408;13.356;2023-03-20T20:08:23;16.95;;;11.75;;
45762;SDS011;37512;52.408;13.356;2023-03-20T20:12:44;15.90;;;10.25;;
45762;SDS011;37512;52.408;13.356;2023-03-20T20:16:46;17.13;;;11.15;;
45762;SDS011;37512;52.408;13.356;2023-03-20T20:20:49;14.00;;;10.40;;
45762;SDS011;37512;52.408;13.356;2023-03-20T20:25:12;16.98;;;10.65;;
45762;SDS011;37512;52.408;13.356;2023-03-20T20:29:14;17.90;;;10.25;;
45762;SDS011;37512;52.408;13.356;2023-03-20T20:33:16;15.85;;;10.73;;
45762;SDS011;37512;52.408;13.356;2023-03-20T20:37:20;17.55;;;11.38;;
45762;SDS011;37512;52.408;13.356;2023-03-20T20:41:42;14.40;;;10.02;;
45762;SDS011;37512;52.408;13.356;2023-03-20T20:45:43;16.80;;;9.48;;
45762;SDS011;37512;52.408;13.356;2023-03-20T20:49:45;13.30;;;10.15;;
45762;SDS011;37512;52.408;13.356;2023-03-20T20:53:48;13.90;;;10.05;;
45762;SDS011;37512;52.408;13.356;2023-03-20T20:57:51;15.48;;;9.20;;
45762;SDS011;37512;52.408;13.356;2023-03-20T21:01:55;13.98;;;9.77;;
45762;SDS011;37512;52.408;13.356;2023-03-20T21:06:02;12.95;;;9.50;;
45762;SDS011;37512;52.408;13.356;2023-03-20T21:10:05;13.05;;;10.07;;
45762;SDS011;37512;52.408;13.356;2023-03-20T21:14:07;13.95;;;9.88;;
45762;SDS011;37512;52.408;13.356;2023-03-20T21:18:09;15.65;;;10.95;;
45762;SDS011;37512;52.408;13.356;2023-03-20T21:22:11;18.00;;;11.40;;
45762;SDS011;37512;52.408;13.356;2023-03-20T21:26:16;19.98;;;11.80;;
45762;SDS011;37512;52.408;13.356;2023-03-20T21:30:19;18.48;;;12.18;;
45762;SDS011;37512;52.408;13.356;2023-03-20T21:34:21;17.02;;;12.40;;
45762;SDS011;37512;52.408;13.356;2023-03-20T21:38:24;18.15;;;12.60;;
45762;SDS011;37512;52.408;13.356;2023-03-20T21:42:46;17.17;;;10.98;;
45762;SDS011;37512;52.408;13.356;2023-03-20T21:46:49;18.65;;;12.40;;
45762;SDS011;37512;52.408;13.356;2023-03-20T21:51:12;18.75;;;12.27;;
45762;SDS011;37512;52.408;13.356;2023-03-20T21:55:34;16.65;;;12.43;;
45762;SDS011;37512;52.408;13.356;2023-03-20T21:59:56;19.10;;;12.60;;
45762;SDS011;37512;52.408;13.356;2023-03-20T22:04:17;17.85;;;12.88;;
45762;SDS011;37512;52.408;13.356;2023-03-20T22:08:39;21.38;;;13.15;;
45762;SDS011;37512;52.408;13.356;2023-03-20T22:13:02;18.25;;;12.45;;
45762;SDS011;37512;52.408;13.356;2023-03-20T22:17:26;18.50;;;12.30;;
45762;SDS011;37512;52.408;13.356;2023-03-20T22:21:48;16.33;;;11.88;;
45762;SDS011;37512;52.408;13.356;2023-03-20T22:26:10;16.60;;;11.55;;
45762;SDS011;37512;52.408;13.356;2023-03-20T22:30:32;15.25;;;11.05;;
45762;SDS011;37512;52.408;13.356;2023-03-20T22:34:55;17.60;;;12.05;;
45762;SDS011;37512;52.408;13.356;2023-03-20T22:39:17;17.38;;;11.52;;
45762;SDS011;37512;52.408;13.356;2023-03-20T22:43:39;18.70;;;12.77;;
45762;SDS011;37512;52.408;13.356;2023-03-20T22:48:01;20.23;;;13.93;;
45762;SDS011;37512;52.408;13.356;2023-03-20T22:52:03;22.73;;;13.77;;
45762;SDS011;37512;52.408;13.356;2023-03-20T22:56:24;19.17;;;14.20;;
45762;SDS011;37512;52.408;13.356;2023-03-20T23:00:26;19.52;;;13.45;;
45762;SDS011;37512;52.408;13.356;2023-03-20T23:04:28;17.75;;;12.93;;
45762;SDS011;37512;52.408;13.356;2023-03-20T23:08:30;21.67;;;13.43;;
45762;SDS011;37512;52.408;13.356;2023-03-20T23:12:39;21.17;;;14.30;;
45762;SDS011;37512;52.408;13.356;2023-03-20T23:16:44;25.23;;;13.40;;
45762;SDS011;37512;52.408;13.356;2023-03-20T23:20:45;18.20;;;12.95;;
45762;SDS011;37512;52.408;13.356;2023-03-20T23:24:47;20.52;;;12.77;;
45762;SDS011;37512;52.408;13.356;2023-03-20T23:28:49;18.63;;;13.57;;
45762;SDS011;37512;52.408;13.356;2023-03-20T23:32:53;17.17;;;12.63;;
45762;SDS011;37512;52.408;13.356;2023-03-20T23:36:54;17.15;;;13.20;;
45762;SDS011;37512;52.408;13.356;2023-03-20T23:40:57;19.15;;;13.55;;
45762;SDS011;37512;52.408;13.356;2023-03-20T23:44:59;19.17;;;13.38;;
45762;SDS011;37512;52.408;13.356;2023-03-20T23:49:17;20.20;;;14.15;;
45762;SDS011;37512;52.408;13.356;2023-03-20T23:53:19;18.27;;;13.77;;
45762;SDS011;37512;52.408;13.356;2023-03-20T23:57:21;17.75;;;13.90;;
